KCKV/CKV METAR and TAF weather

Enter ICAO airport designator
Station Type Date Time Source
KCKV METAR 2020/09/18 19:52 UTC NOAA

KCKV 181952Z AUTO 02013G21KT 10SM CLR 24/12 A3014 RMK AO2 SLP201 T02390117


Station Type Date Time Source
KCKV Decoded METAR 2020/09/18 19:52 UTC NOAA

CLARKSVILLE OUTLAW FIELD, TN, United States (KCKV) 36-37N 87-25W 165M
Sep 18, 2020 - 03:52 PM EDT / 2020.09.18 1952 UTC
Wind: from the NNE (020 degrees) at 15 MPH (13 KT) gusting to 24 MPH (21 KT):0
Visibility: 10 mile(s):0
Sky conditions: clear
Temperature: 75.0 F (23.9 C)
Dew Point: 53.1 F (11.7 C)
Relative Humidity: 46%
Pressure (altimeter): 30.14 in. Hg (1020 hPa)
ob: KCKV 181952Z AUTO 02013G21KT 10SM CLR 24/12 A3014 RMK AO2 SLP201 T02390117
cycle: 20

Station Type Date Time Source
KCKV TAF 2020/09/18 18:36 UTC NOAA

TAF KCKV 181734Z 1818/1918 04012G20KT P6SM FEW250
FM190300 02008KT P6SM BKN250
FM191500 05009G15KT P6SM FEW250

Example: see airport list